Time;durP1;ratioP1;P1;durP2;ratioP2;P2;SDS_P1;SDS_P2;PMS_P1;PMS_P2;Temp;Humidity;BMP_temperature;BMP_pressure;BME280_temperature;BME280_humidity;BME280_pressure;Samples;Min_cycle;Max_cycle;Signal;HPM_P1;HPM_P2
2023/09/30 00:01:38;;;;;;;4.95;1.98;;;19.90;91.80;;;;;;4977672;28;20114;-81
2023/09/30 00:04:05;;;;;;;3.85;1.75;;;19.90;91.70;;;;;;4977747;28;20105;-81
2023/09/30 00:06:30;;;;;;;4.28;1.77;;;19.90;91.80;;;;;;4977313;28;20033;-80
2023/09/30 00:08:56;;;;;;;5.25;1.80;;;19.90;91.80;;;;;;4976903;28;20018;-81
2023/09/30 00:11:21;;;;;;;4.78;1.70;;;19.90;91.80;;;;;;4995003;28;20034;-81
2023/09/30 00:13:49;;;;;;;3.55;1.40;;;19.80;91.70;;;;;;4977397;28;20030;-81
2023/09/30 00:16:17;;;;;;;6.18;2.08;;;19.90;91.70;;;;;;4995067;28;20022;-81
2023/09/30 00:18:42;;;;;;;4.20;1.70;;;19.90;91.60;;;;;;4977044;28;20026;-81
2023/09/30 00:21:08;;;;;;;4.70;1.80;;;19.90;91.60;;;;;;4994856;28;20561;-81
2023/09/30 00:23:33;;;;;;;4.75;1.48;;;19.90;91.60;;;;;;4977247;28;20554;-81
2023/09/30 00:26:00;;;;;;;4.43;1.70;;;19.90;91.70;;;;;;4977345;28;20026;-81
2023/09/30 00:28:26;;;;;;;4.90;1.77;;;19.90;91.70;;;;;;4976909;28;20022;-81
2023/09/30 00:30:51;;;;;;;4.07;2.00;;;19.90;91.80;;;;;;4977223;28;20438;-81
2023/09/30 00:33:17;;;;;;;6.25;2.40;;;19.90;91.80;;;;;;4976936;28;20038;-81
2023/09/30 00:35:42;;;;;;;5.47;1.80;;;19.90;91.70;;;;;;4977071;28;20069;-81
2023/09/30 00:38:09;;;;;;;4.43;1.95;;;19.90;91.60;;;;;;4976875;28;20026;-81
2023/09/30 00:40:35;;;;;;;6.47;2.00;;;19.90;91.70;;;;;;4976816;28;20114;-81
2023/09/30 00:43:01;;;;;;;5.18;1.73;;;19.90;91.60;;;;;;4976896;28;20109;-81
2023/09/30 00:45:27;;;;;;;5.75;2.20;;;19.90;91.60;;;;;;4977002;28;20023;-81
2023/09/30 00:47:53;;;;;;;4.45;1.75;;;19.90;91.60;;;;;;4976463;28;20023;-81
2023/09/30 00:50:20;;;;;;;5.20;1.70;;;19.80;91.60;;;;;;4977103;28;20049;-81
2023/09/30 00:52:48;;;;;;;5.15;2.10;;;19.90;91.60;;;;;;4976718;28;20073;-81
2023/09/30 00:55:15;;;;;;;3.13;1.45;;;19.90;91.60;;;;;;4976897;28;20030;-82
2023/09/30 00:57:41;;;;;;;5.50;1.90;;;19.80;91.60;;;;;;4976321;28;20037;-81
2023/09/30 01:00:11;;;;;;;4.82;1.80;;;19.80;91.70;;;;;;4994088;28;20062;-81
2023/09/30 01:02:41;;;;;;;5.30;1.70;;;19.80;91.70;;;;;;4993887;28;20102;-81
2023/09/30 01:05:07;;;;;;;3.30;1.48;;;19.80;91.80;;;;;;4994047;28;20057;-81
2023/09/30 01:07:34;;;;;;;5.03;1.88;;;19.80;91.80;;;;;;4976078;28;20479;-81
2023/09/30 01:10:00;;;;;;;3.53;1.50;;;19.90;91.70;;;;;;4976414;28;20085;-81
2023/09/30 01:12:25;;;;;;;4.57;1.90;;;19.90;91.70;;;;;;4976257;28;20046;-81
2023/09/30 01:14:58;;;;;;;4.00;1.55;;;19.90;91.70;;;;;;4993611;28;20042;-81
2023/09/30 01:17:24;;;;;;;5.13;1.90;;;19.90;91.60;;;;;;4976139;28;20501;-81
2023/09/30 01:19:49;;;;;;;3.80;1.70;;;19.90;91.60;;;;;;4975460;28;20458;-81
2023/09/30 01:22:16;;;;;;;4.63;1.73;;;19.90;91.60;;;;;;4975900;28;20029;-81
2023/09/30 01:24:42;;;;;;;5.07;1.85;;;19.90;91.60;;;;;;4993258;28;20101;-81
2023/09/30 01:27:09;;;;;;;4.90;1.95;;;19.80;91.50;;;;;;4992027;28;20058;-81
2023/09/30 01:29:38;;;;;;;5.72;1.90;;;19.80;91.50;;;;;;4976133;28;20033;-81
2023/09/30 01:32:05;;;;;;;4.93;1.83;;;19.80;91.50;;;;;;4992346;28;20046;-81
2023/09/30 01:34:30;;;;;;;5.50;1.90;;;19.80;91.50;;;;;;4976167;28;20109;-81
2023/09/30 01:36:56;;;;;;;5.05;2.08;;;19.80;91.50;;;;;;4991911;28;20468;-81
2023/09/30 01:39:22;;;;;;;5.03;1.90;;;19.80;91.50;;;;;;4976014;28;20050;-81
2023/09/30 01:41:48;;;;;;;4.40;1.83;;;19.80;91.50;;;;;;4993116;28;20026;-81
2023/09/30 01:44:13;;;;;;;4.75;1.90;;;19.80;91.50;;;;;;4993229;28;20079;-82
2023/09/30 01:46:39;;;;;;;5.28;1.88;;;19.80;91.50;;;;;;4991571;28;20510;-81
2023/09/30 01:49:04;;;;;;;5.25;2.20;;;19.80;91.50;;;;;;4993318;28;20026;-82
2023/09/30 01:51:30;;;;;;;4.20;1.80;;;19.80;91.50;;;;;;4993217;28;20398;-81
2023/09/30 01:53:55;;;;;;;4.32;1.60;;;19.80;91.50;;;;;;4991774;28;20121;-81
2023/09/30 01:56:21;;;;;;;4.60;1.50;;;19.80;91.60;;;;;;4991928;28;20065;-82
2023/09/30 01:58:47;;;;;;;5.03;1.90;;;19.80;91.70;;;;;;4991490;28;20026;-81
2023/09/30 02:01:12;;;;;;;4.47;1.70;;;19.80;91.70;;;;;;4991776;28;20030;-81
2023/09/30 02:03:38;;;;;;;5.03;1.60;;;19.80;91.80;;;;;;4991788;28;20029;-81
2023/09/30 02:06:04;;;;;;;4.93;1.80;;;19.80;91.70;;;;;;4975559;28;20032;-81
2023/09/30 02:08:30;;;;;;;5.30;2.00;;;19.80;91.70;;;;;;4991530;28;20026;-81
2023/09/30 02:10:55;;;;;;;4.93;1.90;;;19.90;91.70;;;;;;4991344;28;20041;-81
2023/09/30 02:13:21;;;;;;;4.60;1.80;;;19.80;91.60;;;;;;4992682;28;20080;-81
2023/09/30 02:15:46;;;;;;;3.50;1.48;;;19.80;91.60;;;;;;4975344;28;20027;-81
2023/09/30 02:18:12;;;;;;;6.57;1.85;;;19.80;91.50;;;;;;4991329;28;20022;-81
2023/09/30 02:20:39;;;;;;;3.97;1.45;;;19.80;91.60;;;;;;4991282;28;20026;-81
2023/09/30 02:23:05;;;;;;;4.18;1.50;;;19.80;91.70;;;;;;4975388;28;20030;-81
2023/09/30 02:25:31;;;;;;;4.55;1.80;;;19.80;91.70;;;;;;4975138;28;20034;-81
2023/09/30 02:27:57;;;;;;;5.57;2.15;;;19.80;91.60;;;;;;4991117;28;20128;-81
2023/09/30 02:30:23;;;;;;;4.20;1.60;;;19.80;91.70;;;;;;4992586;28;20486;-81
2023/09/30 02:32:49;;;;;;;4.80;1.83;;;19.80;91.70;;;;;;4974945;28;20026;-81
2023/09/30 02:35:15;;;;;;;4.43;1.83;;;19.80;91.70;;;;;;4975259;28;20505;-81
2023/09/30 02:37:41;;;;;;;4.10;1.67;;;19.80;91.60;;;;;;4992346;28;20026;-81
2023/09/30 02:40:09;;;;;;;4.97;1.77;;;19.80;91.60;;;;;;4991147;28;20026;-81
2023/09/30 02:42:36;;;;;;;4.05;1.60;;;19.80;91.60;;;;;;4991175;28;20030;-81
2023/09/30 02:45:02;;;;;;;4.65;1.77;;;19.80;91.50;;;;;;4975096;28;20494;-81
2023/09/30 02:47:28;;;;;;;5.25;2.00;;;19.80;91.50;;;;;;4992233;28;20122;-81
2023/09/30 02:49:56;;;;;;;5.22;1.75;;;19.80;91.50;;;;;;4992358;28;20491;-81
2023/09/30 02:52:22;;;;;;;4.22;1.83;;;19.80;91.60;;;;;;4986164;28;20019;-81
2023/09/30 02:54:48;;;;;;;3.67;1.50;;;19.80;91.80;;;;;;4983076;28;20018;-81
2023/09/30 02:57:15;;;;;;;20.58;2.00;;;19.80;91.80;;;;;;4974440;28;20025;-81
2023/09/30 02:59:40;;;;;;;4.60;1.75;;;19.80;91.80;;;;;;4990969;28;20441;-81
2023/09/30 03:02:06;;;;;;;5.22;1.70;;;19.80;91.80;;;;;;4990871;28;20026;-81
2023/09/30 03:04:32;;;;;;;4.25;1.50;;;19.80;91.70;;;;;;4991117;28;20045;-81
2023/09/30 03:06:58;;;;;;;4.70;1.80;;;19.80;91.70;;;;;;4990861;28;20483;-81
2023/09/30 03:09:24;;;;;;;4.95;1.83;;;19.80;91.60;;;;;;4991242;28;20327;-82
2023/09/30 03:11:49;;;;;;;4.45;1.90;;;19.80;91.60;;;;;;4974789;28;20026;-82
2023/09/30 03:14:15;;;;;;;4.90;1.60;;;19.80;91.60;;;;;;4991174;28;20027;-81
2023/09/30 03:16:41;;;;;;;4.53;1.70;;;19.80;91.60;;;;;;4974309;28;20161;-81
2023/09/30 03:19:08;;;;;;;5.55;1.85;;;19.80;91.70;;;;;;4990963;28;20425;-81
2023/09/30 03:21:37;;;;;;;3.67;1.65;;;19.80;91.70;;;;;;4991920;28;20026;-81
2023/09/30 03:24:07;;;;;;;4.13;1.60;;;19.80;91.70;;;;;;4990884;28;20026;-81
2023/09/30 03:26:33;;;;;;;4.75;1.90;;;19.70;91.70;;;;;;4992441;28;20015;-81
2023/09/30 03:28:59;;;;;;;4.28;1.90;;;19.80;91.70;;;;;;4992097;28;20089;-81
2023/09/30 03:31:25;;;;;;;6.22;1.88;;;19.70;91.60;;;;;;4992097;28;20031;-81
2023/09/30 03:33:53;;;;;;;4.38;1.70;;;19.70;91.60;;;;;;4990739;28;20041;-81
2023/09/30 03:36:24;;;;;;;5.45;1.98;;;19.70;91.60;;;;;;4974744;28;20027;-81
2023/09/30 03:38:50;;;;;;;5.50;2.13;;;19.70;91.60;;;;;;4974362;28;20026;-81
2023/09/30 03:41:15;;;;;;;3.85;1.50;;;19.70;91.60;;;;;;4974597;28;20122;-81
2023/09/30 03:43:41;;;;;;;6.20;1.80;;;19.70;91.70;;;;;;4991448;28;20481;-81
2023/09/30 03:46:11;;;;;;;5.18;1.90;;;19.70;91.60;;;;;;4994333;28;20026;-81
2023/09/30 03:48:39;;;;;;;4.03;1.63;;;19.70;91.60;;;;;;4977778;28;20026;-81
2023/09/30 03:51:14;;;;;;;3.88;1.67;;;19.70;91.80;;;;;;4978074;28;20081;-81
2023/09/30 03:53:44;;;;;;;4.55;1.92;;;19.70;91.80;;;;;;4995231;28;20031;-81
2023/09/30 03:56:13;;;;;;;5.15;1.70;;;19.70;91.70;;;;;;4994026;28;20029;-81
2023/09/30 03:58:41;;;;;;;3.95;1.58;;;19.70;91.70;;;;;;4977400;28;20054;-81
2023/09/30 04:01:07;;;;;;;4.95;1.92;;;19.70;91.70;;;;;;4977841;28;20096;-81
2023/09/30 04:03:33;;;;;;;4.53;1.90;;;19.80;91.70;;;;;;4977715;28;20029;-81
2023/09/30 04:05:59;;;;;;;4.35;1.75;;;19.80;91.60;;;;;;4977713;28;20018;-81
2023/09/30 04:08:24;;;;;;;4.53;1.80;;;19.80;91.60;;;;;;4977268;28;20030;-81
2023/09/30 04:10:50;;;;;;;3.50;1.40;;;19.80;91.60;;;;;;4977393;28;20177;-81
2023/09/30 04:13:16;;;;;;;5.65;1.83;;;19.80;91.60;;;;;;4977675;28;20243;-81
2023/09/30 04:15:42;;;;;;;4.18;1.55;;;19.70;91.60;;;;;;4977655;28;20026;-81
2023/09/30 04:18:07;;;;;;;4.15;1.70;;;19.80;91.60;;;;;;4977098;28;20026;-81
2023/09/30 04:20:33;;;;;;;4.72;1.73;;;19.70;91.70;;;;;;4977472;28;20031;-82
2023/09/30 04:22:58;;;;;;;4.38;1.70;;;19.70;91.60;;;;;;4994901;28;20483;-81
2023/09/30 04:25:24;;;;;;;4.00;1.70;;;19.70;91.50;;;;;;4977379;28;20057;-81
2023/09/30 04:27:50;;;;;;;4.30;1.80;;;19.70;91.70;;;;;;4976851;28;20026;-81
2023/09/30 04:30:16;;;;;;;5.30;1.95;;;19.70;91.60;;;;;;4977214;28;20034;-81
2023/09/30 04:32:42;;;;;;;4.72;1.98;;;19.70;91.70;;;;;;4993357;28;20032;-81
2023/09/30 04:35:08;;;;;;;3.72;1.67;;;19.70;91.60;;;;;;4977188;28;20109;-81
2023/09/30 04:37:36;;;;;;;5.30;1.90;;;19.70;91.60;;;;;;4976793;28;20073;-81
2023/09/30 04:40:07;;;;;;;4.85;1.98;;;19.70;91.60;;;;;;4993159;28;20395;-82
2023/09/30 04:42:36;;;;;;;;;;;19.70;91.70;;;;;;4977516;28;20022;-81
2023/09/30 04:45:04;;;;;;;3.55;1.63;;;19.70;91.70;;;;;;4977106;28;20093;-81
2023/09/30 04:47:29;;;;;;;3.90;1.65;;;19.70;91.70;;;;;;4976362;28;20022;-81
2023/09/30 04:49:57;;;;;;;5.57;1.83;;;19.70;91.80;;;;;;4993018;28;20029;-81
2023/09/30 04:52:26;;;;;;;4.50;1.65;;;19.70;91.80;;;;;;4992836;28;20088;-81
2023/09/30 04:54:52;;;;;;;3.80;1.60;;;19.70;91.70;;;;;;4976264;28;20018;-81
2023/09/30 04:57:19;;;;;;;4.28;1.60;;;19.70;91.70;;;;;;4976246;28;20113;-81
2023/09/30 04:59:44;;;;;;;4.32;1.65;;;19.70;91.70;;;;;;4992898;28;20030;-81
2023/09/30 05:02:10;;;;;;;5.18;1.88;;;19.70;91.60;;;;;;4994028;28;20405;-81
2023/09/30 05:04:36;;;;;;;3.88;1.70;;;19.70;91.60;;;;;;4991180;28;20100;-81
2023/09/30 05:07:03;;;;;;;4.60;1.70;;;19.70;91.60;;;;;;4976080;28;20077;-81
2023/09/30 05:09:29;;;;;;;4.60;1.70;;;19.70;91.60;;;;;;4992528;28;20030;-82
2023/09/30 05:11:55;;;;;;;4.15;1.70;;;19.70;91.60;;;;;;4975780;28;20487;-81
2023/09/30 05:14:21;;;;;;;3.92;1.60;;;19.70;91.60;;;;;;4992831;28;20026;-81
2023/09/30 05:16:47;;;;;;;4.20;1.70;;;19.70;91.60;;;;;;4976095;28;20030;-81
2023/09/30 05:19:12;;;;;;;3.63;1.63;;;19.70;91.70;;;;;;4993826;28;20429;-80
2023/09/30 05:21:38;;;;;;;4.03;1.63;;;19.70;91.60;;;;;;4990430;28;20038;-83
2023/09/30 05:24:05;;;;;;;3.90;1.70;;;19.70;91.70;;;;;;4970571;28;20053;-82
2023/09/30 05:26:31;;;;;;;4.28;1.65;;;19.60;91.60;;;;;;4967356;28;20038;-82
2023/09/30 05:32:11;;;;;;;4.25;1.73;;;19.70;91.70;;;;;;4992355;28;20128;-82
2023/09/30 05:35:02;;;;;;;3.97;1.67;;;19.60;91.60;;;;;;5020544;28;20034;-81
2023/09/30 05:37:58;;;;;;;;;;;;;;;;;;;;;
2023/09/30 05:40:26;;;;;;;4.53;1.58;;;19.60;91.70;;;;;;4993016;28;20030;-80
2023/09/30 05:44:20;;;;;;;4.65;1.70;;;19.20;91.60;;;;;;5022837;28;20286;-80
2023/09/30 05:46:54;;;;;;;4.13;1.63;;;19.80;91.80;;;;;;4970628;28;20527;-79
2023/09/30 05:49:29;;;;;;;4.25;1.60;;;19.70;91.80;;;;;;4987362;28;20043;-80
2023/09/30 05:52:52;;;;;;;;;;;;;;;;;;;;;
2023/09/30 05:56:00;;;;;;;4.15;1.63;;;19.60;91.70;;;;;;4996847;28;20048;-81
2023/09/30 06:02:35;;;;;;;3.72;1.52;;;19.60;91.60;;;;;;4929923;29;20067;-82
2023/09/30 06:05:01;;;;;;;3.92;1.50;;;19.70;91.60;;;;;;4986099;28;20134;-82
2023/09/30 06:08:08;;;;;;;;;;;;;;;;;;;;;
2023/09/30 06:10:45;;;;;;;4.30;1.60;;;19.70;91.50;;;;;;4972313;28;20041;-83
2023/09/30 06:16:56;;;;;;;4.78;1.70;;;19.60;91.50;;;;;;4930006;28;20065;-80
2023/09/30 06:19:27;;;;;;;4.65;1.70;;;19.50;91.60;;;;;;4972899;28;20041;-82
2023/09/30 06:22:23;;;;;;;5.15;1.70;;;19.50;91.50;;;;;;4972125;28;20041;-83
2023/09/30 06:33:44;;;;;;;3.58;1.52;;;19.70;91.60;;;;;;4971924;28;20446;-82
2023/09/30 06:36:17;;;;;;;4.47;1.77;;;19.60;91.60;;;;;;4972020;28;20046;-82
2023/09/30 06:38:48;;;;;;;4.55;1.77;;;19.70;91.60;;;;;;4970527;28;20030;-82
2023/09/30 06:41:51;;;;;;;4.85;1.63;;;19.80;91.60;;;;;;4971380;28;20023;-83
2023/09/30 06:44:20;;;;;;;4.40;1.60;;;19.70;91.50;;;;;;4988432;28;20039;-82
2023/09/30 06:46:58;;;;;;;4.38;1.58;;;19.70;91.50;;;;;;4968278;28;20350;-81
2023/09/30 06:49:59;;;;;;;;;;;;;;;;;;;;;
2023/09/30 06:52:35;;;;;;;3.80;1.60;;;19.80;91.30;;;;;;4948856;28;20289;-80
2023/09/30 06:55:40;;;;;;;;;;;;;;;;;;;;;
2023/09/30 06:58:42;;;;;;;5.03;1.85;;;19.90;91.20;;;;;;4947210;28;20271;-81
2023/09/30 07:01:23;;;;;;;5.22;1.75;;;19.80;91.00;;;;;;4963515;28;20090;-83
2023/09/30 07:03:58;;;;;;;5.53;1.80;;;19.90;91.00;;;;;;4963751;28;20043;-84
2023/09/30 07:06:47;;;;;;;5.57;1.70;;;19.90;91.00;;;;;;4982684;28;20186;-83
2023/09/30 07:09:20;;;;;;;5.35;1.90;;;19.90;91.00;;;;;;4968474;28;20411;-81
2023/09/30 07:12:04;;;;;;;4.90;1.70;;;20.00;91.00;;;;;;4983110;28;20069;-84
2023/09/30 07:14:32;;;;;;;5.90;1.92;;;20.00;91.00;;;;;;4982958;28;20500;-83
2023/09/30 07:20:08;;;;;;;6.57;1.83;;;20.20;91.00;;;;;;4971467;28;20039;-83
2023/09/30 07:22:57;;;;;;;4.50;1.90;;;20.00;90.90;;;;;;4970601;28;20242;-82
2023/09/30 07:25:38;;;;;;;5.20;1.77;;;20.40;91.00;;;;;;4971043;28;20030;-82
2023/09/30 07:28:03;;;;;;;4.70;1.98;;;21.40;91.30;;;;;;4972128;28;20692;-81
2023/09/30 07:34:25;;;;;;;5.00;1.85;;;19.90;90.80;;;;;;4930690;29;20047;-82
2023/09/30 07:36:53;;;;;;;5.93;2.00;;;19.60;90.70;;;;;;4942811;28;20093;-82
2023/09/30 07:39:19;;;;;;;4.75;1.80;;;20.00;90.80;;;;;;4970276;28;20053;-82
2023/09/30 07:41:44;;;;;;;5.30;2.17;;;20.10;90.80;;;;;;4966543;28;20578;-82
2023/09/30 07:44:10;;;;;;;3.67;1.77;;;20.10;90.80;;;;;;4974691;28;20106;-83
2023/09/30 07:46:36;;;;;;;5.97;2.20;;;20.20;90.80;;;;;;4969866;28;20210;-82
2023/09/30 07:49:03;;;;;;;5.20;1.95;;;20.10;90.60;;;;;;4953606;29;20122;-83
2023/09/30 07:51:29;;;;;;;5.18;2.05;;;20.20;90.60;;;;;;4953560;29;20035;-82
2023/09/30 07:53:55;;;;;;;5.03;2.15;;;20.30;90.60;;;;;;4953833;28;20053;-83
2023/09/30 07:56:21;;;;;;;5.70;2.15;;;20.30;90.50;;;;;;4953538;28;20391;-81
2023/09/30 07:58:48;;;;;;;5.25;2.10;;;20.30;90.40;;;;;;4953305;29;20031;-83
2023/09/30 08:01:14;;;;;;;3.85;1.60;;;20.30;90.30;;;;;;4953546;28;20031;-83
2023/09/30 08:03:40;;;;;;;4.30;2.10;;;20.30;90.30;;;;;;4953382;29;20027;-83
2023/09/30 08:06:08;;;;;;;3.97;1.90;;;20.30;90.40;;;;;;4954616;29;20033;-82
2023/09/30 08:08:35;;;;;;;5.75;2.28;;;20.30;90.40;;;;;;4952794;28;20023;-81
2023/09/30 08:11:00;;;;;;;9.68;2.63;;;20.30;90.40;;;;;;4953168;28;20035;-80
2023/09/30 08:13:26;;;;;;;8.65;3.00;;;20.30;90.10;;;;;;4953030;28;20675;-81
2023/09/30 08:15:53;;;;;;;14.43;3.45;;;20.30;90.00;;;;;;4952652;28;20058;-83
2023/09/30 08:18:18;;;;;;;8.15;3.15;;;20.30;89.60;;;;;;4952083;29;20032;-82
2023/09/30 08:20:44;;;;;;;8.48;2.90;;;20.50;89.90;;;;;;4952255;29;20033;-83
2023/09/30 08:23:11;;;;;;;8.00;2.90;;;20.40;89.80;;;;;;4952125;29;20066;-81
2023/09/30 08:25:37;;;;;;;9.13;3.10;;;20.40;89.90;;;;;;4952467;28;20140;-83
2023/09/30 08:28:03;;;;;;;8.38;2.80;;;20.40;90.00;;;;;;4952213;28;20030;-83
2023/09/30 08:30:29;;;;;;;8.48;3.05;;;20.40;90.00;;;;;;4951716;28;20042;-83
2023/09/30 08:32:54;;;;;;;8.80;3.15;;;20.40;89.90;;;;;;4952274;28;20031;-83
2023/09/30 08:35:20;;;;;;;9.23;2.88;;;20.40;90.00;;;;;;4951954;28;20110;-83
2023/09/30 08:37:45;;;;;;;9.48;2.92;;;20.50;90.00;;;;;;4952948;29;20043;-81
2023/09/30 08:40:11;;;;;;;5.72;2.80;;;20.50;90.00;;;;;;4951961;28;20082;-83
2023/09/30 08:42:39;;;;;;;6.97;2.58;;;20.50;90.00;;;;;;4951630;29;20035;-82
2023/09/30 08:45:07;;;;;;;6.13;2.40;;;20.60;90.00;;;;;;4951839;29;20042;-83
2023/09/30 08:47:35;;;;;;;6.30;2.80;;;20.60;90.00;;;;;;4951480;29;20816;-83
2023/09/30 08:50:06;;;;;;;6.20;2.72;;;20.60;90.00;;;;;;4953223;28;20075;-83
2023/09/30 08:52:37;;;;;;;6.97;2.85;;;20.70;89.90;;;;;;4964093;28;20085;-82
2023/09/30 08:55:03;;;;;;;;;;;20.70;89.80;;;;;;4968435;28;20035;-82
2023/09/30 08:57:29;;;;;;;7.15;2.90;;;20.70;89.60;;;;;;4952382;28;19910;-84
2023/09/30 08:59:55;;;;;;;6.68;2.50;;;20.70;89.80;;;;;;4952723;29;20039;-84
2023/09/30 09:02:21;;;;;;;6.35;2.88;;;20.70;89.70;;;;;;4967573;28;20046;-83
2023/09/30 09:04:46;;;;;;;7.43;3.13;;;20.70;89.70;;;;;;4967594;28;20763;-84
2023/09/30 09:07:12;;;;;;;8.10;2.80;;;20.70;89.90;;;;;;4987081;28;20482;-84
2023/09/30 09:09:40;;;;;;;7.10;2.70;;;20.70;89.90;;;;;;4986803;28;20104;-85
2023/09/30 09:12:06;;;;;;;6.72;2.50;;;20.70;89.90;;;;;;4978790;28;20054;-80
2023/09/30 09:14:52;;;;;;;9.32;3.28;;;20.70;89.90;;;;;;4992734;28;20034;-83
2023/09/30 09:17:18;;;;;;;5.25;2.50;;;20.50;89.80;;;;;;4991432;28;20084;-82
2023/09/30 09:19:46;;;;;;;6.68;3.10;;;21.00;90.00;;;;;;4992879;28;20038;-83
2023/09/30 09:22:14;;;;;;;6.03;2.83;;;20.80;89.90;;;;;;4980426;28;20126;-82
2023/09/30 09:24:47;;;;;;;7.45;2.83;;;20.80;89.80;;;;;;4967818;28;20439;-82
2023/09/30 09:27:22;;;;;;;7.45;2.63;;;21.40;90.00;;;;;;4967654;28;20625;-82
2023/09/30 09:29:59;;;;;;;10.23;3.20;;;22.10;90.20;;;;;;4952680;28;20102;-82
2023/09/30 09:32:30;;;;;;;5.57;2.60;;;20.90;89.70;;;;;;4951148;29;20554;-82
2023/09/30 09:35:07;;;;;;;6.55;2.80;;;21.10;89.70;;;;;;4951362;29;20020;-82
2023/09/30 09:37:33;;;;;;;7.00;2.95;;;20.90;89.70;;;;;;4951125;29;20042;-82
2023/09/30 09:40:16;;;;;;;6.35;2.50;;;21.00;89.60;;;;;;4952717;28;20476;-82
2023/09/30 09:43:04;;;;;;;6.00;2.63;;;20.80;89.60;;;;;;4952286;28;20502;-82
2023/09/30 09:45:43;;;;;;;6.00;2.80;;;21.00;89.40;;;;;;4952899;28;20019;-83
2023/09/30 09:48:09;;;;;;;6.10;2.85;;;21.00;89.40;;;;;;4966282;28;20042;-83
2023/09/30 09:51:08;;;;;;;6.03;2.45;;;21.80;89.70;;;;;;4951866;28;20027;-82
2023/09/30 09:54:32;;;;;;;7.22;2.90;;;21.00;89.20;;;;;;4952477;28;20073;-83
2023/09/30 10:00:48;;;;;;;6.85;2.72;;;21.00;89.10;;;;;;4953109;29;20617;-82
2023/09/30 10:03:13;;;;;;;5.78;2.67;;;21.00;89.20;;;;;;4969008;28;20037;-83
2023/09/30 10:06:07;;;;;;;6.53;2.92;;;21.00;89.40;;;;;;4951250;28;20027;-82
2023/09/30 10:08:45;;;;;;;6.28;2.60;;;20.90;89.30;;;;;;4967263;28;20031;-82
2023/09/30 10:11:33;;;;;;;5.22;2.33;;;21.00;89.40;;;;;;4952624;28;20031;-82
2023/09/30 10:14:06;;;;;;;5.60;2.55;;;20.90;89.40;;;;;;4951022;29;20035;-82
2023/09/30 10:16:39;;;;;;;5.78;2.33;;;21.10;89.60;;;;;;4950829;29;20033;-82
2023/09/30 10:19:15;;;;;;;5.97;2.55;;;21.00;89.70;;;;;;4952452;28;20073;-82
2023/09/30 10:22:21;;;;;;;7.70;2.97;;;21.10;89.70;;;;;;4966798;28;20027;-82
2023/09/30 10:24:50;;;;;;;6.00;2.50;;;21.00;89.70;;;;;;4950821;29;20028;-82
2023/09/30 10:27:22;;;;;;;5.60;2.42;;;21.10;89.80;;;;;;4966857;28;20487;-82
2023/09/30 10:29:51;;;;;;;5.80;2.75;;;21.00;89.80;;;;;;4950915;28;20035;-83
2023/09/30 10:32:19;;;;;;;5.50;2.40;;;22.30;90.20;;;;;;4952218;28;20033;-83
2023/09/30 10:34:54;;;;;;;5.68;2.50;;;22.10;90.20;;;;;;4950804;28;20547;-82
2023/09/30 10:37:28;;;;;;;4.82;2.58;;;20.90;89.70;;;;;;4951413;28;20035;-83
2023/09/30 10:40:04;;;;;;;5.38;2.40;;;21.00;89.50;;;;;;4952499;28;20330;-82
2023/09/30 10:47:01;;;;;;;4.90;2.42;;;21.00;89.40;;;;;;4952046;28;20039;-82
2023/09/30 10:49:47;;;;;;;5.45;2.65;;;21.10;89.30;;;;;;4911396;29;20025;-82
2023/09/30 10:56:27;;;;;;;7.88;2.88;;;21.00;89.00;;;;;;4859162;29;20165;-84
2023/09/30 10:58:53;;;;;;;16.17;3.97;;;21.10;89.00;;;;;;4887392;29;20068;-82
2023/09/30 11:01:20;;;;;;;20.30;3.88;;;21.00;88.20;;;;;;4946143;29;20059;-83
2023/09/30 11:03:50;;;;;;;16.38;4.18;;;21.10;88.40;;;;;;4954554;29;20027;-83
2023/09/30 11:06:19;;;;;;;12.07;3.20;;;21.30;88.60;;;;;;4969891;28;20042;-81
2023/09/30 11:08:59;;;;;;;13.18;3.78;;;21.10;88.60;;;;;;4969574;28;20418;-81
2023/09/30 11:11:43;;;;;;;16.50;4.05;;;21.00;88.80;;;;;;4954592;29;20034;-81
2023/09/30 11:14:24;;;;;;;13.60;3.60;;;21.10;88.80;;;;;;4968111;28;20037;-82
2023/09/30 11:16:50;;;;;;;;;;;21.10;89.00;;;;;;4992052;28;20502;-83
2023/09/30 11:19:16;;;;;;;10.00;3.20;;;21.10;89.40;;;;;;4997719;28;19906;-82
2023/09/30 11:21:43;;;;;;;15.23;4.22;;;21.10;89.70;;;;;;4996041;28;20053;-82
2023/09/30 11:24:10;;;;;;;11.73;3.30;;;21.10;90.40;;;;;;5012508;28;20037;-81
2023/09/30 11:26:37;;;;;;;14.25;3.30;;;21.20;91.00;;;;;;4995627;28;20026;-81
2023/09/30 11:29:11;;;;;;;12.02;3.08;;;21.30;91.00;;;;;;4986428;28;20054;-81
2023/09/30 11:31:38;;;;;;;15.13;3.70;;;21.40;91.20;;;;;;4976709;28;20038;-81
2023/09/30 11:34:03;;;;;;;13.10;3.65;;;21.50;90.70;;;;;;4975999;28;20062;-81
2023/09/30 11:36:31;;;;;;;12.57;3.78;;;21.60;90.60;;;;;;4975716;28;20077;-80
2023/09/30 11:38:57;;;;;;;11.35;3.35;;;21.70;90.40;;;;;;4975881;28;20022;-81
2023/09/30 11:41:22;;;;;;;12.65;3.70;;;21.80;90.30;;;;;;4976182;28;20023;-82
2023/09/30 11:44:07;;;;;;;10.32;3.17;;;21.90;90.30;;;;;;4975721;28;20459;-82
2023/09/30 11:46:47;;;;;;;13.82;3.45;;;21.90;90.10;;;;;;4975505;28;20479;-81
2023/09/30 11:49:13;;;;;;;14.35;3.47;;;21.90;90.00;;;;;;4975934;28;20478;-82
2023/09/30 11:51:47;;;;;;;11.63;3.67;;;22.00;90.00;;;;;;4975716;28;20066;-83
2023/09/30 11:54:14;;;;;;;13.95;3.33;;;22.00;89.80;;;;;;4976960;28;20023;-83
2023/09/30 11:56:40;;;;;;;13.82;3.38;;;22.00;89.60;;;;;;4976586;28;20034;-81
2023/09/30 11:59:05;;;;;;;13.15;3.67;;;22.00;89.40;;;;;;4976494;28;20034;-82
2023/09/30 12:01:32;;;;;;;9.85;3.50;;;22.10;88.50;;;;;;4975252;28;20042;-82
2023/09/30 12:03:58;;;;;;;11.07;3.38;;;22.10;87.90;;;;;;4976105;28;20542;-82
2023/09/30 12:06:24;;;;;;;10.88;3.55;;;22.10;87.90;;;;;;4974975;28;20483;-81
2023/09/30 12:08:52;;;;;;;10.07;3.42;;;22.10;87.70;;;;;;4975241;28;20029;-81
2023/09/30 12:11:23;;;;;;;11.95;3.30;;;22.10;87.60;;;;;;4975185;28;20027;-82
2023/09/30 12:13:49;;;;;;;11.00;3.50;;;22.20;87.50;;;;;;4975202;28;20030;-81
2023/09/30 12:16:16;;;;;;;10.82;3.25;;;22.10;87.70;;;;;;4976146;28;20030;-81
2023/09/30 12:18:41;;;;;;;14.68;3.63;;;22.00;88.10;;;;;;4974869;28;20058;-82
2023/09/30 12:21:11;;;;;;;14.63;3.40;;;21.90;87.90;;;;;;4976608;28;20035;-81
2023/09/30 12:23:37;;;;;;;13.80;3.13;;;21.80;87.00;;;;;;4975122;28;20023;-82
2023/09/30 12:26:06;;;;;;;14.93;3.53;;;22.00;86.40;;;;;;4975088;28;20022;-82
2023/09/30 12:28:32;;;;;;;17.38;3.33;;;21.90;86.40;;;;;;4974974;28;20034;-82
2023/09/30 12:31:02;;;;;;;12.25;3.53;;;21.90;86.50;;;;;;4975006;28;20033;-82
2023/09/30 12:33:28;;;;;;;12.52;3.58;;;21.90;86.70;;;;;;4974925;28;20447;-82
2023/09/30 12:35:54;;;;;;;12.57;3.42;;;21.90;87.30;;;;;;4991173;28;20034;-81
2023/09/30 12:38:19;;;;;;;12.32;3.35;;;21.90;87.00;;;;;;4975840;28;20122;-81
2023/09/30 12:40:45;;;;;;;10.40;3.58;;;21.80;87.20;;;;;;4974637;28;20759;-81
2023/09/30 12:43:10;;;;;;;11.05;2.80;;;21.80;87.40;;;;;;4974730;28;20023;-81
2023/09/30 12:45:38;;;;;;;12.55;3.08;;;21.80;87.60;;;;;;4974761;28;20019;-81
2023/09/30 12:48:04;;;;;;;9.30;2.78;;;21.70;87.70;;;;;;4974350;28;20074;-82
2023/09/30 12:50:29;;;;;;;9.60;3.15;;;21.70;87.90;;;;;;4974747;28;20031;-82
2023/09/30 12:52:55;;;;;;;8.05;2.53;;;21.70;88.00;;;;;;4976010;28;20077;-81
2023/09/30 12:55:20;;;;;;;10.30;2.70;;;21.70;88.20;;;;;;4974772;28;20134;-81
2023/09/30 12:57:46;;;;;;;10.90;2.58;;;21.60;88.80;;;;;;4974338;28;20041;-81
2023/09/30 13:00:12;;;;;;;10.23;3.03;;;21.50;88.30;;;;;;4974204;28;20380;-82
2023/09/30 13:02:38;;;;;;;10.80;3.03;;;21.60;88.30;;;;;;4976009;28;20027;-82
2023/09/30 13:05:05;;;;;;;9.07;2.90;;;21.60;88.40;;;;;;4975719;28;20015;-81
2023/09/30 13:07:30;;;;;;;8.07;2.67;;;21.50;88.40;;;;;;4974256;28;20454;-81
2023/09/30 13:09:56;;;;;;;8.10;2.63;;;21.50;88.40;;;;;;4975249;28;20022;-81
2023/09/30 13:12:22;;;;;;;11.23;2.85;;;21.50;88.70;;;;;;4974077;28;20494;-82
2023/09/30 13:14:47;;;;;;;11.18;2.72;;;21.50;88.80;;;;;;4974779;28;20027;-81
2023/09/30 13:17:14;;;;;;;11.25;3.00;;;21.50;88.90;;;;;;4974017;28;20506;-81
2023/09/30 13:19:39;;;;;;;8.63;2.42;;;21.50;88.90;;;;;;4975558;28;20037;-80
2023/09/30 13:22:05;;;;;;;10.40;2.70;;;21.50;88.80;;;;;;4975765;28;20027;-82
2023/09/30 13:24:37;;;;;;;7.55;2.60;;;21.40;88.70;;;;;;4975566;28;20403;-81
2023/09/30 13:27:02;;;;;;;10.17;2.27;;;21.50;88.80;;;;;;4973891;28;20027;-81
2023/09/30 13:29:28;;;;;;;7.75;2.60;;;21.50;88.80;;;;;;4975234;28;20269;-81
2023/09/30 13:31:53;;;;;;;8.20;2.65;;;21.40;88.90;;;;;;4975035;28;20030;-81
2023/09/30 13:34:19;;;;;;;6.68;2.33;;;21.40;89.40;;;;;;4975032;28;20031;-80
2023/09/30 13:36:45;;;;;;;7.07;2.17;;;21.40;89.00;;;;;;4973671;28;20399;-81
2023/09/30 13:39:13;;;;;;;7.40;2.22;;;21.30;89.00;;;;;;4973712;28;20026;-81
2023/09/30 13:41:40;;;;;;;7.25;2.53;;;21.30;89.10;;;;;;4973640;28;20026;-82
2023/09/30 13:44:05;;;;;;;9.77;2.40;;;21.30;89.00;;;;;;4973755;28;20111;-81